Time;durP1;ratioP1;P1;durP2;ratioP2;P2;SDS_P1;SDS_P2;PMS_P1;PMS_P2;Temp;Humidity;BMP_temperature;BMP_pressure;BME280_temperature;BME280_humidity;BME280_pressure;Samples;Min_cycle;Max_cycle;Signal;HPM_P1;HPM_P2
2023/04/14 00:00:27;;;;;;;;;3.50;3.00;;;;;9.89;62.92;100832.44;2037561;27;2753759;-74
2023/04/14 00:01:40;;;;;;;;;5.17;3.00;;;;;9.89;63.18;100836.81;2033880;27;2750273;-74
2023/04/14 00:02:53;;;;;;;;;3.33;3.33;;;;;9.89;62.98;100835.06;2020504;28;2746106;-74
2023/04/14 00:04:06;;;;;;;;;4.50;2.00;;;;;9.89;63.16;100835.06;2053456;27;2740882;-74
2023/04/14 00:05:20;;;;;;;;;6.50;4.00;;;;;9.89;63.10;100835.06;2059781;27;2746122;-74
2023/04/14 00:06:33;;;;;;;;;5.67;2.83;;;;;9.90;62.93;100831.53;2056408;27;2754454;-74
2023/04/14 00:07:46;;;;;;;;;5.17;4.00;;;;;9.90;63.79;100839.41;2036807;27;2742977;-74
2023/04/14 00:08:59;;;;;;;;;4.67;4.67;;;;;9.92;63.34;100833.25;2060500;27;2741928;-74
2023/04/14 00:10:12;;;;;;;;;3.67;3.67;;;;;9.93;63.39;100834.97;2037940;27;2746196;-74
2023/04/14 00:11:26;;;;;;;;;4.33;4.33;;;;;9.93;63.62;100837.59;2061308;27;2745105;-74
2023/04/14 00:12:39;;;;;;;;;5.83;5.83;;;;;9.95;63.77;100838.44;2033379;27;2734644;-74
2023/04/14 00:13:54;;;;;;;;;5.33;5.33;;;;;9.96;63.48;100832.25;2060549;27;2745082;-74
2023/04/14 00:15:08;;;;;;;;;10.00;6.67;;;;;9.96;63.38;100830.50;2028599;28;2744003;-74
2023/04/14 00:16:21;;;;;;;;;7.83;5.00;;;;;9.96;63.26;100827.00;2048022;28;2735692;-74
2023/04/14 00:17:35;;;;;;;;;7.33;4.83;;;;;9.97;63.45;100826.09;2054018;27;2746192;-74
2023/04/14 00:18:48;;;;;;;;;6.17;5.83;;;;;9.97;63.52;100823.47;2061816;27;2737782;-74
2023/04/14 00:20:01;;;;;;;;;4.17;4.17;;;;;9.98;63.43;100825.19;2061462;27;2740886;-74
2023/04/14 00:21:23;;;;;;;;;5.50;4.00;;;;;9.98;63.72;100827.81;2061684;27;2740370;-74
2023/04/14 00:22:37;;;;;;;;;5.67;4.00;;;;;9.98;63.70;100825.19;2051007;28;2743358;-74
2023/04/14 00:23:50;;;;;;;;;4.17;4.17;;;;;9.98;64.01;100810.28;2053206;27;2747142;-74
2023/04/14 00:25:03;;;;;;;;;5.50;5.00;;;;;9.99;63.47;100821.66;2060721;27;2741252;-74
2023/04/14 00:26:16;;;;;;;;;6.00;4.67;;;;;9.99;63.58;100816.41;2059261;27;2750261;-74
2023/04/14 00:27:30;;;;;;;;;6.33;5.50;;;;;9.99;63.47;100808.53;2037089;27;2736778;-74
2023/04/14 00:28:43;;;;;;;;;5.00;5.00;;;;;9.98;63.33;100809.44;2051844;28;2741947;-74
2023/04/14 00:29:56;;;;;;;;;5.83;5.33;;;;;9.96;63.00;100809.50;2044325;28;2737785;-74
2023/04/14 00:31:10;;;;;;;;;6.67;6.17;;;;;9.97;63.15;100808.59;2053523;27;2738807;-74
2023/04/14 00:32:23;;;;;;;;;8.67;5.50;;;;;9.97;63.07;100815.59;2061391;27;2734664;-74
2023/04/14 00:33:36;;;;;;;;;6.50;5.50;;;;;9.96;63.00;100814.75;2051726;28;2746142;-74
2023/04/14 00:34:49;;;;;;;;;5.67;5.17;;;;;9.95;63.12;100814.78;2052311;27;2740878;-74
2023/04/14 00:36:03;;;;;;;;;8.33;7.17;;;;;9.93;62.97;100809.56;2050255;28;2738798;-74
2023/04/14 00:37:13;;;;;;;;;9.00;8.00;;;;;9.93;63.04;100812.19;1995214;28;2740981;-74
2023/04/14 00:38:25;;;;;;;;;6.67;6.67;;;;;9.92;63.11;100812.25;2049880;27;2739844;-74
2023/04/14 00:39:38;;;;;;;;;6.17;6.00;;;;;9.90;62.99;100810.50;2034537;27;2736723;-74
2023/04/14 00:40:51;;;;;;;;;8.17;7.00;;;;;9.90;63.26;100814.94;2052185;28;2733591;-74
2023/04/14 00:42:04;;;;;;;;;8.17;8.00;;;;;9.89;62.92;100807.94;2019805;28;2746130;-74
2023/04/14 00:43:18;;;;;;;;;6.17;6.17;;;;;9.87;63.21;100808.00;2054354;27;2734121;-74
2023/04/14 00:44:31;;;;;;;;;7.67;6.17;;;;;9.87;63.20;100807.13;2061005;27;2737773;-74
2023/04/14 00:45:47;;;;;;;;;6.00;6.00;;;;;9.85;63.13;100806.31;2059862;27;2735738;-74
2023/04/14 00:47:01;;;;;;;;;8.67;8.00;;;;;9.83;62.89;100813.38;2052871;28;2732550;-74
2023/04/14 00:48:14;;;;;;;;;9.33;7.00;;;;;9.82;63.06;100807.28;2007665;27;3467964;-74
2023/04/14 00:49:28;;;;;;;;;10.00;7.17;;;;;9.80;62.86;100806.47;2060770;27;2753374;-74
2023/04/14 00:50:41;;;;;;;;;6.00;5.00;;;;;9.78;62.84;100805.63;2038384;27;2731515;-74
2023/04/14 00:51:56;;;;;;;;;6.83;6.17;;;;;9.78;63.03;100808.25;2037007;27;2744034;-74
2023/04/14 00:53:11;;;;;;;;;6.50;6.00;;;;;9.77;62.93;100809.16;2052037;28;2736719;-74
2023/04/14 00:54:25;;;;;;;;;9.17;7.50;;;;;9.75;63.34;100803.94;2052471;27;2747175;-74
2023/04/14 00:55:39;;;;;;;;;7.00;7.00;;;;;9.74;63.16;100797.00;2037844;27;2735666;-74
2023/04/14 00:56:54;;;;;;;;;7.17;6.00;;;;;9.73;63.28;100799.66;2043499;28;2730462;-74
2023/04/14 00:58:08;;;;;;;;;8.00;8.00;;;;;9.72;63.41;100790.94;2050303;27;2741921;-74
2023/04/14 00:59:21;;;;;;;;;9.83;7.00;;;;;9.73;63.22;100797.03;2049403;27;2753386;-74
2023/04/14 01:00:35;;;;;;;;;5.83;5.00;;;;;9.71;63.20;100794.44;2045540;28;2746122;-74
2023/04/14 01:01:48;;;;;;;;;5.50;4.83;;;;;9.70;63.00;100797.13;2029919;27;2746102;-74
2023/04/14 01:03:01;;;;;;;;;5.67;5.00;;;;;9.70;63.27;100797.13;2059988;27;2749279;-74
2023/04/14 01:04:15;;;;;;;;;6.00;6.00;;;;;9.67;62.94;100793.69;2052519;28;2748198;-74
2023/04/14 01:05:28;;;;;;;;;5.50;5.50;;;;;9.67;62.90;100800.69;2059030;27;2754427;-74
2023/04/14 01:06:41;;;;;;;;;4.50;4.00;;;;;9.67;63.15;100798.06;2028743;28;2736712;-74
2023/04/14 01:07:54;;;;;;;;;4.00;4.00;;;;;9.66;63.30;100802.44;2053146;27;2738806;-74
2023/04/14 01:09:08;;;;;;;;;7.67;5.00;;;;;9.65;62.88;100800.75;2053134;27;2739868;-74
2023/04/14 01:10:26;;;;;;;;;5.00;5.00;;;;;9.62;63.29;100790.31;2048557;28;2741923;-74
2023/04/14 01:11:47;;;;;;;;;4.83;4.00;;;;;9.63;63.26;100797.28;2054172;27;2746601;-74
2023/04/14 01:13:14;;;;;;;;;5.17;5.00;;;;;9.62;63.24;100794.72;2054073;27;2746189;-74
2023/04/14 01:14:43;;;;;;;;;8.83;5.33;;;;;9.60;63.27;100802.63;2028729;27;2752430;-74
2023/04/14 01:16:02;;;;;;;;;8.83;5.83;;;;;9.59;63.18;100803.53;2061076;27;2739337;-74
2023/04/14 01:17:30;;;;;;;;;4.83;4.67;;;;;9.59;63.45;100802.66;2060814;27;2738819;-74
2023/04/14 01:18:49;;;;;;;;;5.00;5.00;;;;;9.57;63.18;100807.97;2061159;27;2740882;-74
2023/04/14 01:20:19;;;;;;;;;5.67;5.67;;;;;9.56;62.92;100806.22;2036517;27;2734647;-74
2023/04/14 01:21:40;;;;;;;;;7.33;6.17;;;;;9.54;62.91;100802.78;2060732;27;2744002;-74
2023/04/14 01:23:21;;;;;;;;;5.00;5.00;;;;;9.53;63.23;100795.84;2060791;27;2746106;-74
2023/04/14 01:25:10;;;;;;;;;6.17;4.67;;;;;9.53;63.19;100806.34;2055301;27;2731530;-74
2023/04/14 01:26:30;;;;;;;;;4.67;4.67;;;;;9.49;63.15;100807.31;2056181;27;2748651;-74
2023/04/14 01:28:28;;;;;;;;;3.33;3.33;;;;;9.48;62.97;100808.22;2060355;27;2741920;-74
2023/04/14 01:30:25;;;;;;;;;6.50;5.67;;;;;9.45;63.14;100807.41;2051607;28;2739841;-74
2023/04/14 01:32:01;;;;;;;;;5.83;4.17;;;;;9.43;62.99;100800.47;2051968;27;2752328;-74
2023/04/14 01:33:19;;;;;;;;;4.67;3.83;;;;;9.42;63.47;100804.00;2034406;27;2754450;-74
2023/04/14 01:34:38;;;;;;;;;4.67;4.50;;;;;9.41;63.51;100803.13;2048722;28;2750253;-74
2023/04/14 01:35:55;;;;;;;;;7.17;4.50;;;;;9.38;63.37;100800.59;2053969;27;2750260;-74
2023/04/14 01:37:29;;;;;;;;;5.33;4.17;;;;;9.38;63.27;100803.22;2061423;27;2742966;-74
2023/04/14 01:38:44;;;;;;;;;6.50;5.00;;;;;9.37;63.22;100809.38;2052704;28;2742969;-74
2023/04/14 01:40:10;;;;;;;;;5.33;5.33;;;;;9.36;63.33;100815.50;2059489;27;2746117;-74
2023/04/14 01:41:27;;;;;;;;;5.33;3.83;;;;;9.35;63.23;100811.16;2050940;28;2752340;-74
2023/04/14 01:42:46;;;;;;;;;4.00;3.83;;;;;9.33;63.41;100805.09;2028441;27;2750257;-74
2023/04/14 01:44:03;;;;;;;;;4.33;4.33;;;;;9.33;63.10;100805.09;2036577;27;2754782;-74
2023/04/14 01:45:25;;;;;;;;;7.00;4.00;;;;;9.32;63.22;100814.72;2034725;27;2738815;-74
2023/04/14 01:46:41;;;;;;;;;5.00;5.00;;;;;9.31;63.33;100802.50;2051572;28;2745056;-74
2023/04/14 01:47:55;;;;;;;;;4.17;4.00;;;;;9.31;63.02;100809.53;2058403;27;2736719;-74
2023/04/14 01:49:10;;;;;;;;;7.50;5.33;;;;;9.30;63.46;100813.06;2061089;27;2736731;-74
2023/04/14 01:50:25;;;;;;;;;6.83;4.00;;;;;9.29;62.96;100811.31;2059367;27;2735706;-74
2023/04/14 01:51:42;;;;;;;;;4.67;4.17;;;;;9.29;63.33;100808.69;2043177;28;2752746;-74
2023/04/14 01:52:57;;;;;;;;;4.00;4.00;;;;;9.27;63.29;100805.25;2013779;28;2746099;-74
2023/04/14 01:54:13;;;;;;;;;5.33;5.00;;;;;9.27;63.35;100807.88;2045627;28;2746126;-74
2023/04/14 01:55:29;;;;;;;;;4.83;4.83;;;;;9.25;63.40;100810.56;2056600;27;2746126;-74
2023/04/14 01:56:45;;;;;;;;;3.00;2.83;;;;;9.25;63.60;100809.69;2060772;27;2750280;-74
2023/04/14 01:58:01;;;;;;;;;4.67;3.67;;;;;9.23;63.09;100810.56;2061959;27;2736719;-74
2023/04/14 01:59:13;;;;;;;;;5.00;5.00;;;;;9.23;63.17;100809.75;2034621;27;2749243;-74
2023/04/14 02:00:26;;;;;;;;;6.50;4.00;;;;;9.22;63.55;100808.00;2051175;28;2740898;-74
2023/04/14 02:01:41;;;;;;;;;5.83;4.83;;;;;9.21;63.04;100807.13;2052726;27;2746106;-74
2023/04/14 02:02:55;;;;;;;;;5.83;4.50;;;;;9.20;63.42;100805.44;2026946;28;2742962;-74
2023/04/14 02:04:10;;;;;;;;;4.83;4.83;;;;;9.19;63.28;100801.06;2053091;27;2746610;-74
2023/04/14 02:05:25;;;;;;;;;4.50;4.50;;;;;9.18;63.46;100802.00;2060812;27;2740871;-74
2023/04/14 02:06:39;;;;;;;;;5.83;5.33;;;;;9.18;63.35;100801.13;2060745;27;2737804;-74
2023/04/14 02:07:54;;;;;;;;;4.33;4.17;;;;;9.18;63.67;100803.75;2051615;28;2747133;-74
2023/04/14 02:09:11;;;;;;;;;7.67;4.00;;;;;9.16;63.45;100809.00;2053324;27;2746130;-74
2023/04/14 02:10:26;;;;;;;;;4.50;4.00;;;;;9.15;63.39;100807.31;2060097;27;2744006;-74
2023/04/14 02:11:42;;;;;;;;;4.83;4.50;;;;;9.14;63.18;100805.56;2060215;27;2750272;-74
2023/04/14 02:12:57;;;;;;;;;5.50;4.50;;;;;9.13;63.31;100803.88;2051854;28;2737777;-74
2023/04/14 02:14:12;;;;;;;;;6.00;5.83;;;;;9.13;63.38;100808.25;2030554;27;2735730;-74
2023/04/14 02:15:27;;;;;;;;;4.33;4.33;;;;;9.12;63.51;100807.38;2061280;27;2733100;-74
2023/04/14 02:16:42;;;;;;;;;4.00;4.00;;;;;9.11;63.38;100814.38;2050866;28;2745057;-74
2023/04/14 02:17:57;;;;;;;;;5.17;5.17;;;;;9.10;63.48;100804.81;2053700;27;2744008;-74
2023/04/14 02:19:11;;;;;;;;;6.17;4.50;;;;;9.09;63.73;100803.06;2036891;27;2746098;-74
2023/04/14 02:20:27;;;;;;;;;5.83;4.17;;;;;9.07;63.35;100804.00;2060397;27;2740685;-74
2023/04/14 02:21:41;;;;;;;;;3.83;3.83;;;;;9.07;63.75;100804.88;2035307;27;2745674;-74
2023/04/14 02:22:55;;;;;;;;;5.17;5.17;;;;;9.06;63.32;100808.38;2059933;27;2733582;-74
2023/04/14 02:24:08;;;;;;;;;3.83;3.17;;;;;9.06;63.65;100815.41;2060264;27;2750301;-74
2023/04/14 02:25:24;;;;;;;;;5.83;5.83;;;;;9.05;63.15;100816.31;2037137;27;2745064;-74
2023/04/14 02:26:44;;;;;;;;;4.50;4.50;;;;;9.04;63.73;100804.94;2060853;27;2740386;-74
2023/04/14 02:28:02;;;;;;;;;4.17;4.17;;;;;9.03;63.85;100799.75;2060691;27;2739877;-74
2023/04/14 02:29:21;;;;;;;;;4.67;4.17;;;;;9.03;63.74;100807.63;2060499;27;2744019;-74
2023/04/14 02:30:37;;;;;;;;;5.50;4.33;;;;;9.02;63.25;100798.88;2059818;27;2738791;-74
2023/04/14 02:32:03;;;;;;;;;5.67;4.83;;;;;9.00;63.36;100796.31;2060156;27;2748554;-74
2023/04/14 02:33:20;;;;;;;;;5.67;5.33;;;;;9.00;63.80;100798.06;2051815;28;2742985;-74
2023/04/14 02:34:46;;;;;;;;;4.00;3.67;;;;;8.98;63.69;100792.88;2045738;28;2734644;-74
2023/04/14 02:36:03;;;;;;;;;7.00;5.33;;;;;8.97;64.03;100793.75;2054963;27;2746098;-74
2023/04/14 02:37:22;;;;;;;;;5.50;5.50;;;;;8.95;63.64;100800.81;2060358;27;2749269;-74
2023/04/14 02:38:44;;;;;;;;;5.00;5.00;;;;;8.94;63.94;100788.59;2052791;27;2750307;-74
2023/04/14 02:40:02;;;;;;;;;4.33;3.50;;;;;8.93;63.68;100780.78;2035106;27;2740898;-74
2023/04/14 02:41:22;;;;;;;;;4.17;3.00;;;;;8.92;63.53;100790.41;2059863;27;2754945;-74
2023/04/14 02:42:40;;;;;;;;;5.33;4.67;;;;;8.92;63.82;100793.00;2036639;27;2737792;-74
2023/04/14 02:44:02;;;;;;;;;7.50;5.67;;;;;8.90;63.84;100792.19;2060389;27;2742965;-74
2023/04/14 02:45:21;;;;;;;;;6.33;5.00;;;;;8.90;63.93;100794.81;2060207;27;2745076;-74
2023/04/14 02:46:39;;;;;;;;;6.50;5.00;;;;;8.90;63.76;100792.19;2060035;27;2740896;-74
2023/04/14 02:47:56;;;;;;;;;5.17;5.17;;;;;8.88;63.42;100792.25;2060243;27;2735703;-74
2023/04/14 02:49:12;;;;;;;;;5.83;5.50;;;;;8.88;63.99;100786.13;2060604;27;2751283;-74
2023/04/14 02:50:27;;;;;;;;;5.00;5.00;;;;;8.85;63.25;100787.06;2059121;27;2746157;-74
2023/04/14 02:51:43;;;;;;;;;6.00;6.00;;;;;8.85;63.78;100794.06;2058280;27;2735702;-74
2023/04/14 02:52:58;;;;;;;;;5.00;5.00;;;;;8.84;63.31;100782.72;2060491;27;2739937;-74
2023/04/14 02:54:12;;;;;;;;;6.00;4.17;;;;;8.85;63.66;100783.59;2052737;27;2754415;-74
2023/04/14 02:55:26;;;;;;;;;3.00;3.00;;;;;8.83;63.60;100781.00;2035843;27;2745077;-74
2023/04/14 02:56:39;;;;;;;;;3.83;3.17;;;;;8.83;63.96;100775.78;2047197;28;2741931;-74
2023/04/14 02:57:54;;;;;;;;;8.67;6.17;;;;;8.83;63.59;100778.41;2030102;27;2737769;-74
2023/04/14 02:59:08;;;;;;;;;6.50;4.83;;;;;8.82;63.61;100778.41;2036958;27;2741940;-74
2023/04/14 03:00:22;;;;;;;;;4.33;4.33;;;;;8.82;63.34;100776.66;2061845;27;2737757;-74
2023/04/14 03:01:38;;;;;;;;;3.17;3.17;;;;;8.81;63.37;100766.22;2052716;28;2744031;-74
2023/04/14 03:02:52;;;;;;;;;4.50;3.00;;;;;8.80;63.67;100762.72;2052149;28;2752348;-74
2023/04/14 03:04:06;;;;;;;;;5.50;5.00;;;;;8.79;63.33;100771.47;2054526;27;2744006;-74
2023/04/14 03:05:20;;;;;;;;;4.33;3.83;;;;;8.76;63.74;100759.34;2062002;27;2741414;-74
2023/04/14 03:06:37;;;;;;;;;4.33;3.33;;;;;8.76;63.76;100758.47;2058654;27;2750249;-74
2023/04/14 03:07:52;;;;;;;;;5.50;5.50;;;;;8.75;63.74;100762.84;2058799;27;2746587;-74
2023/04/14 03:09:06;;;;;;;;;4.50;4.50;;;;;8.75;64.02;100761.97;2054525;27;2744091;-74
2023/04/14 03:10:21;;;;;;;;;6.00;4.17;;;;;8.73;63.83;100769.91;2061810;27;2743009;-74
2023/04/14 03:11:36;;;;;;;;;5.00;5.00;;;;;8.73;63.93;100764.66;2061321;27;2743307;-74
2023/04/14 03:12:51;;;;;;;;;4.00;4.00;;;;;8.72;63.59;100764.69;2036447;27;2745088;-74
2023/04/14 03:14:05;;;;;;;;;6.83;4.50;;;;;8.71;63.86;100763.84;2038376;27;2745033;-74
2023/04/14 03:15:20;;;;;;;;;6.00;4.83;;;;;8.70;63.63;100754.25;2061515;27;2745187;-74
2023/04/14 03:16:38;;;;;;;;;9.00;5.00;;;;;8.70;63.71;100758.63;2058890;27;2754415;-74
2023/04/14 03:17:54;;;;;;;;;6.67;4.67;;;;;8.69;63.97;100760.41;2052205;28;2742985;-74
2023/04/14 03:19:11;;;;;;;;;2.83;2.00;;;;;8.67;63.60;100754.31;2054778;27;2754446;-74
2023/04/14 03:20:25;;;;;;;;;4.00;4.00;;;;;8.66;63.72;100757.84;2038225;27;2748551;-74
2023/04/14 03:21:39;;;;;;;;;4.00;4.00;;;;;8.67;63.75;100754.31;2061915;27;2749242;-74
2023/04/14 03:23:05;;;;;;;;;8.00;5.33;;;;;8.66;63.82;100758.72;2037715;27;2747136;-74
2023/04/14 03:24:23;;;;;;;;;4.33;4.00;;;;;8.65;64.12;100746.50;2052183;28;2750284;-74
2023/04/14 03:25:38;;;;;;;;;4.00;4.00;;;;;8.64;64.00;100755.25;2031478;27;2743495;-74
2023/04/14 03:26:58;;;;;;;;;6.00;5.50;;;;;8.64;63.89;100749.16;2062198;27;2735020;-74
2023/04/14 03:28:14;;;;;;;;;3.50;3.50;;;;;8.63;63.70;100753.53;2059852;27;2733591;-74
2023/04/14 03:29:33;;;;;;;;;4.00;4.00;;;;;8.63;64.06;100755.28;2062727;27;2735709;-74
2023/04/14 03:30:50;;;;;;;;;4.00;4.00;;;;;8.62;63.79;100757.03;2052693;28;2745129;-74
2023/04/14 03:32:05;;;;;;;;;3.00;2.50;;;;;8.62;64.21;100753.56;2031968;27;2733587;-74
2023/04/14 03:33:26;;;;;;;;;4.17;3.00;;;;;8.61;63.89;100755.34;2061524;27;2751370;-74
2023/04/14 03:34:45;;;;;;;;;4.17;4.17;;;;;8.61;64.11;100762.34;2061164;27;2752371;-74
2023/04/14 03:35:59;;;;;;;;;4.50;4.50;;;;;8.60;64.22;100752.75;2035268;27;2752367;-74
2023/04/14 03:37:16;;;;;;;;;6.00;5.00;;;;;8.59;63.77;100753.66;2052801;28;2748210;-74
2023/04/14 03:38:32;;;;;;;;;4.00;2.33;;;;;8.57;63.99;100748.41;2061427;27;2737769;-74
2023/04/14 03:39:49;;;;;;;;;6.83;5.50;;;;;8.55;63.95;100751.06;2061236;27;2739824;-74
2023/04/14 03:41:06;;;;;;;;;5.00;5.00;;;;;8.55;64.35;100751.06;2061377;27;2746091;-74
2023/04/14 03:42:20;;;;;;;;;6.33;5.00;;;;;8.55;63.96;100750.19;2062074;27;2735710;-74
2023/04/14 03:43:34;;;;;;;;;5.17;4.17;;;;;8.54;63.93;100753.75;2052722;28;2739333;-74
2023/04/14 03:44:52;;;;;;;;;4.50;4.50;;;;;8.53;64.34;100758.09;2053768;27;2747160;-74
2023/04/14 03:46:05;;;;;;;;;5.50;4.00;;;;;8.52;64.08;100756.38;2059170;27;2738886;-74
2023/04/14 03:47:21;;;;;;;;;4.67;4.00;;;;;8.52;64.60;100758.16;2051963;28;2754439;-74
2023/04/14 03:48:41;;;;;;;;;5.67;5.67;;;;;8.52;63.99;100755.53;2031399;27;2739849;-74
2023/04/14 03:49:58;;;;;;;;;6.00;4.17;;;;;8.52;64.36;100755.53;2061492;27;2742962;-74
2023/04/14 03:51:14;;;;;;;;;6.83;5.50;;;;;8.52;64.08;100751.13;2052716;28;2737225;-74
2023/04/14 03:52:32;;;;;;;;;5.83;3.00;;;;;8.51;64.24;100749.44;2054832;27;2741966;-74
2023/04/14 03:53:47;;;;;;;;;7.50;4.67;;;;;8.52;64.65;100753.75;2060432;27;2739851;-74
2023/04/14 03:55:05;;;;;;;;;4.17;4.17;;;;;8.52;64.38;100751.13;2062243;27;2740894;-74
2023/04/14 03:56:18;;;;;;;;;5.17;5.00;;;;;8.53;64.23;100750.25;2051743;28;2748197;-74
2023/04/14 03:57:35;;;;;;;;;2.17;2.17;;;;;8.52;64.36;100745.91;2046060;28;2739860;-74
2023/04/14 03:58:51;;;;;;;;;5.00;4.00;;;;;8.54;64.48;100740.63;2051006;28;2747148;-74
2023/04/14 04:00:07;;;;;;;;;5.33;5.33;;;;;8.54;64.86;100741.47;2054160;27;2741923;-74
2023/04/14 04:01:24;;;;;;;;;5.67;4.33;;;;;8.55;65.04;100743.22;2060636;27;2752390;-74
2023/04/14 04:02:38;;;;;;;;;4.00;4.00;;;;;8.56;64.62;100751.94;2052654;28;2732573;-74
2023/04/14 04:03:53;;;;;;;;;5.83;4.83;;;;;8.57;64.91;100751.03;2052582;27;2745065;-74
2023/04/14 04:05:09;;;;;;;;;4.33;4.33;;;;;8.59;64.55;100745.78;2061367;27;2746093;-74
2023/04/14 04:06:23;;;;;;;;;5.00;5.00;;;;;8.60;64.90;100750.13;2061360;27;2748173;-74
2023/04/14 04:07:39;;;;;;;;;4.50;4.50;;;;;8.60;64.88;100743.13;2061079;27;2740890;-74
2023/04/14 04:08:54;;;;;;;;;6.00;5.00;;;;;8.61;64.67;100752.72;2060993;27;2746114;-74
2023/04/14 04:10:09;;;;;;;;;5.00;5.00;;;;;8.61;64.36;100747.47;2053441;28;2746109;-74
2023/04/14 04:11:24;;;;;;;;;6.17;4.50;;;;;8.61;64.70;100750.09;2057494;27;2747125;-74
2023/04/14 04:12:41;;;;;;;;;4.50;4.50;;;;;8.62;64.60;100741.31;2059363;27;2750283;-74
2023/04/14 04:13:56;;;;;;;;;4.33;3.17;;;;;8.62;64.78;100745.69;2060317;27;2738811;-74
2023/04/14 04:15:09;;;;;;;;;5.33;4.83;;;;;8.61;64.72;100744.88;2061073;27;2740901;-74
2023/04/14 04:16:26;;;;;;;;;4.17;4.00;;;;;8.62;64.61;100745.69;2052189;28;2738811;-74
2023/04/14 04:17:41;;;;;;;;;4.67;4.67;;;;;8.61;64.41;100744.00;2047449;28;2722173;-74
2023/04/14 04:18:56;;;;;;;;;4.83;4.83;;;;;8.61;63.93;100741.38;2045007;27;2746086;-74
2023/04/14 04:20:14;;;;;;;;;8.50;4.50;;;;;8.60;64.32;100739.63;2060937;27;2746102;-74
2023/04/14 04:21:31;;;;;;;;;2.00;0.00;;;;;8.59;63.86;100745.78;2055926;27;2729448;-74
2023/04/14 04:22:49;;;;;;;;;5.00;5.00;;;;;8.60;64.13;100742.25;2061620;27;2735670;-74
2023/04/14 04:24:05;;;;;;;;;6.67;4.50;;;;;8.59;63.86;100740.56;2060512;27;2747151;-74
2023/04/14 04:25:18;;;;;;;;;7.00;5.83;;;;;8.58;64.43;100738.78;2052512;28;2738814;-74
2023/04/14 04:26:33;;;;;;;;;6.50;5.33;;;;;8.57;64.24;100739.72;2053885;27;2741931;-74
2023/04/14 04:27:48;;;;;;;;;8.83;7.83;;;;;8.55;64.47;100743.22;2060900;27;2748303;-74
2023/04/14 04:29:02;;;;;;;;;4.67;4.00;;;;;8.54;64.29;100730.16;2052690;28;2735682;-74
2023/04/14 04:30:18;;;;;;;;;7.33;5.33;;;;;8.53;63.87;100737.16;2059755;27;2746102;-74
2023/04/14 04:31:32;;;;;;;;;7.00;6.00;;;;;8.51;64.02;100730.22;2061034;27;2734636;-74
2023/04/14 04:32:46;;;;;;;;;4.83;4.83;;;;;8.50;64.60;100729.34;2061525;27;2746082;-74
2023/04/14 04:34:01;;;;;;;;;7.50;4.17;;;;;8.51;64.12;100731.09;2059702;27;2746107;-74
2023/04/14 04:35:16;;;;;;;;;5.83;5.00;;;;;8.49;64.21;100730.28;2052220;28;2736735;-74
2023/04/14 04:36:30;;;;;;;;;5.00;5.00;;;;;8.49;64.24;100724.16;2050665;27;2748186;-74
2023/04/14 04:37:45;;;;;;;;;5.17;4.00;;;;;8.47;64.16;100725.97;2052346;28;2746135;-74
2023/04/14 04:38:58;;;;;;;;;6.50;6.00;;;;;8.47;64.16;100724.19;2053718;27;2728427;-74
2023/04/14 04:40:11;;;;;;;;;4.67;4.67;;;;;8.46;64.21;100721.63;2057953;27;2740909;-74
2023/04/14 04:41:26;;;;;;;;;7.17;6.00;;;;;8.44;64.61;100727.75;2051713;27;2738847;-74
2023/04/14 04:42:42;;;;;;;;;5.33;4.67;;;;;8.43;64.44;100725.16;2051530;28;2748281;-74
2023/04/14 04:43:56;;;;;;;;;5.50;4.50;;;;;8.42;64.19;100718.22;2029156;27;2740231;-74
2023/04/14 04:45:09;;;;;;;;;5.00;4.17;;;;;8.42;64.45;100723.47;2061398;27;2742977;-74
2023/04/14 04:46:29;;;;;;;;;5.33;4.67;;;;;8.40;64.42;100715.63;2052074;28;2737754;-74
2023/04/14 04:47:42;;;;;;;;;2.83;2.83;;;;;8.40;64.65;100713.00;2053876;27;2750305;-74
2023/04/14 04:48:56;;;;;;;;;5.00;5.00;;;;;8.40;64.67;100720.00;2051865;27;2750288;-74
2023/04/14 04:50:09;;;;;;;;;9.00;6.00;;;;;8.40;64.37;100714.75;2053088;27;2735754;-74
2023/04/14 04:51:22;;;;;;;;;6.00;6.00;;;;;8.39;64.74;100708.69;2060227;27;2739868;-74
2023/04/14 04:52:36;;;;;;;;;6.83;6.83;;;;;8.39;64.65;100711.31;2050222;28;2727356;-74
2023/04/14 04:53:49;;;;;;;;;5.00;5.00;;;;;8.39;64.58;100711.31;2044462;28;2748210;-74
2023/04/14 04:55:02;;;;;;;;;8.17;6.67;;;;;8.39;64.56;100707.81;2052361;27;2748540;-74
2023/04/14 04:56:15;;;;;;;;;6.33;4.83;;;;;8.39;64.96;100708.69;2051486;28;2744022;-74
2023/04/14 04:57:29;;;;;;;;;4.83;4.67;;;;;8.40;64.70;100709.53;2052369;27;2747144;-74
2023/04/14 04:58:42;;;;;;;;;5.83;5.00;;;;;8.40;64.85;100710.38;2060635;27;2747146;-74
2023/04/14 04:59:55;;;;;;;;;6.50;6.50;;;;;8.42;64.68;100707.75;2059774;27;2740879;-74
2023/04/14 05:01:09;;;;;;;;;5.67;3.67;;;;;8.42;64.62;100713.00;2060138;27;2750281;-74
2023/04/14 05:02:23;;;;;;;;;6.17;5.83;;;;;8.41;64.88;100700.78;2058116;27;2730454;-74
2023/04/14 05:03:36;;;;;;;;;6.33;5.50;;;;;8.42;65.14;100700.72;2050419;28;2737760;-74
2023/04/14 05:04:50;;;;;;;;;8.50;6.33;;;;;8.44;65.03;100700.72;2053249;27;2739852;-74
2023/04/14 05:06:03;;;;;;;;;6.33;6.33;;;;;8.45;64.74;100705.03;2047362;27;2735717;-74
2023/04/14 05:07:16;;;;;;;;;10.17;6.67;;;;;8.44;64.39;100706.78;2051708;27;2746098;-74
2023/04/14 05:08:30;;;;;;;;;8.17;6.83;;;;;8.46;65.25;100698.91;2061579;27;2736048;-74
2023/04/14 05:09:43;;;;;;;;;7.50;6.33;;;;;8.46;65.10;100698.91;2061340;27;2744015;-74
2023/04/14 05:10:56;;;;;;;;;6.17;5.50;;;;;8.47;64.90;100700.59;2037062;27;2727353;-74
2023/04/14 05:12:09;;;;;;;;;6.17;5.33;;;;;8.48;64.85;100698.84;2056943;27;2749223;-74
2023/04/14 05:13:23;;;;;;;;;5.50;5.50;;;;;8.48;65.07;100699.72;2064518;27;2735690;-74
2023/04/14 05:14:36;;;;;;;;;5.17;5.17;;;;;8.47;64.56;100695.38;2060515;27;2742968;-74
2023/04/14 05:15:50;;;;;;;;;6.50;6.33;;;;;8.48;64.89;100699.72;2033869;27;2746133;-74
2023/04/14 05:17:03;;;;;;;;;8.00;7.50;;;;;8.49;65.02;100698.84;2057260;27;2734632;-74
2023/04/14 05:18:17;;;;;;;;;4.83;4.17;;;;;8.49;64.79;100700.59;2052571;28;2746099;-74
2023/04/14 05:19:27;;;;;;;;;8.00;7.00;;;;;8.49;64.81;100693.59;2029396;27;2730549;-74
2023/04/14 05:20:38;;;;;;;;;6.67;6.33;;;;;8.49;64.69;100693.59;2050612;28;2731540;-74
2023/04/14 05:21:51;;;;;;;;;5.00;5.00;;;;;8.50;64.65;100692.69;2052071;27;2746130;-74
2023/04/14 05:23:05;;;;;;;;;8.33;8.00;;;;;8.50;64.44;100692.69;2059657;27;2737773;-74
2023/04/14 05:24:18;;;;;;;;;6.00;5.17;;;;;8.49;64.98;100693.59;2060692;27;2736782;-74
2023/04/14 05:25:31;;;;;;;;;6.50;6.50;;;;;8.50;64.79;100691.81;2045550;28;2741971;-74
2023/04/14 05:26:45;;;;;;;;;7.33;7.17;;;;;8.50;64.69;100683.97;2050737;27;2734664;-74
2023/04/14 05:27:58;;;;;;;;;8.17;8.17;;;;;8.49;64.63;100683.13;2052169;27;2746085;-74
2023/04/14 05:29:11;;;;;;;;;6.17;6.17;;;;;8.49;64.42;100693.59;2056487;27;2733982;-74
2023/04/14 05:30:25;;;;;;;;;6.67;5.17;;;;;8.49;64.69;100684.88;2051310;28;2741393;-74
2023/04/14 05:31:38;;;;;;;;;9.83;7.83;;;;;8.48;64.90;100683.13;2052847;27;2748252;-74
2023/04/14 05:32:49;;;;;;;;;10.00;9.00;;;;;8.48;64.92;100678.78;2009557;27;2778473;-74
2023/04/14 05:34:00;;;;;;;;;9.67;9.00;;;;;8.48;64.96;100681.38;2042394;27;2763806;-74
2023/04/14 05:35:11;;;;;;;;;9.00;9.00;;;;;8.48;64.95;100673.53;2057110;27;2734201;-74
2023/04/14 05:36:22;;;;;;;;;10.00;10.00;;;;;8.49;64.82;100677.00;2020217;27;1841988;-74
2023/04/14 05:37:33;;;;;;;;;7.33;7.00;;;;;8.49;64.97;100682.25;2027362;28;2734669;-74
2023/04/14 05:38:46;;;;;;;;;8.50;7.17;;;;;8.48;64.98;100681.38;2030802;27;2741927;-74
2023/04/14 05:40:00;;;;;;;;;8.17;8.17;;;;;8.49;64.74;100683.13;2045824;27;2740908;-74
2023/04/14 05:41:11;;;;;;;;;8.67;8.67;;;;;8.50;65.25;100690.06;2034294;28;1846086;-74
2023/04/14 05:42:23;;;;;;;;;9.20;8.20;;;;;8.50;65.15;100687.44;2020924;28;2751298;-74
2023/04/14 05:43:34;;;;;;;;;10.33;9.00;;;;;8.50;65.38;100684.81;1999561;27;2759719;-74
2023/04/14 05:44:45;;;;;;;;;9.00;8.33;;;;;8.52;65.47;100688.25;2046794;27;2742089;-74
2023/04/14 05:45:57;;;;;;;;;10.00;9.00;;;;;8.52;65.17;100680.41;2038867;27;2773284;-74
2023/04/14 05:47:07;;;;;;;;;7.00;6.00;;;;;8.53;65.17;100679.50;2032567;27;2743004;-74
2023/04/14 05:48:19;;;;;;;;;10.00;8.67;;;;;8.54;65.68;100677.75;2050173;27;2762422;-74